createdAt,value
2023-07-30T00:00:35.301Z,2.72
2023-07-30T00:03:01.949Z,2.92
2023-07-30T00:05:28.615Z,2.90
2023-07-30T00:07:55.796Z,2.53
2023-07-30T00:10:23.064Z,2.60
2023-07-30T00:12:49.719Z,2.80
2023-07-30T00:15:16.427Z,2.60
2023-07-30T00:17:42.965Z,3.08
2023-07-30T00:20:10.079Z,2.70
2023-07-30T00:22:36.678Z,2.78
2023-07-30T00:25:04.621Z,2.92
2023-07-30T00:27:31.404Z,2.90
2023-07-30T00:29:58.003Z,2.95
2023-07-30T00:32:24.584Z,2.38
2023-07-30T00:34:51.158Z,2.72
2023-07-30T00:37:17.673Z,2.47
2023-07-30T00:39:44.371Z,2.47
2023-07-30T00:42:10.914Z,2.67
2023-07-30T00:44:37.533Z,2.88
2023-07-30T00:47:07.364Z,2.75
2023-07-30T00:49:34.122Z,2.90
2023-07-30T00:52:01.246Z,2.67
2023-07-30T00:54:27.983Z,2.28
2023-07-30T00:56:54.709Z,2.35
2023-07-30T00:59:21.964Z,2.40
2023-07-30T01:01:48.890Z,2.70
2023-07-30T01:04:16.826Z,2.80
2023-07-30T01:06:44.211Z,2.55
2023-07-30T01:09:11.983Z,2.42
2023-07-30T01:11:40.227Z,2.30
2023-07-30T01:14:07.330Z,2.50
2023-07-30T01:16:33.979Z,2.20
2023-07-30T01:19:05.056Z,2.35
2023-07-30T01:21:36.141Z,2.60
2023-07-30T01:24:03.956Z,2.33
2023-07-30T01:26:43.739Z,2.22
2023-07-30T01:29:23.358Z,2.00
2023-07-30T01:31:58.752Z,2.47
2023-07-30T01:34:28.100Z,2.50
2023-07-30T01:36:57.552Z,2.40
2023-07-30T01:39:25.295Z,3.20
2023-07-30T01:41:57.434Z,2.67
2023-07-30T01:44:23.929Z,3.13
2023-07-30T01:46:50.527Z,2.75
2023-07-30T01:49:18.067Z,3.38
2023-07-30T01:51:44.770Z,3.78
2023-07-30T01:54:11.390Z,3.38
2023-07-30T01:56:37.934Z,3.55
2023-07-30T01:59:04.457Z,3.30
2023-07-30T02:01:31.000Z,3.83
2023-07-30T02:03:57.752Z,3.95
2023-07-30T02:06:24.368Z,3.70
2023-07-30T02:08:50.887Z,3.50
2023-07-30T02:11:17.418Z,3.47
2023-07-30T02:13:44.017Z,3.50
2023-07-30T02:16:10.661Z,3.42
2023-07-30T02:18:37.361Z,3.05
2023-07-30T02:21:04.006Z,3.40
2023-07-30T02:23:30.688Z,3.22
2023-07-30T02:25:57.305Z,3.80
2023-07-30T02:28:23.867Z,4.15
2023-07-30T02:30:50.726Z,4.50
2023-07-30T02:33:17.237Z,4.32
2023-07-30T02:35:45.435Z,6.10
2023-07-30T02:38:12.062Z,6.25
2023-07-30T02:40:38.937Z,7.35
2023-07-30T02:43:05.629Z,6.18
2023-07-30T02:45:32.447Z,8.20
2023-07-30T02:47:59.046Z,6.68
2023-07-30T02:50:25.727Z,5.65
2023-07-30T02:52:52.237Z,6.18
2023-07-30T02:55:19.640Z,4.88
2023-07-30T02:57:46.463Z,3.25
2023-07-30T03:00:13.839Z,3.97
2023-07-30T03:02:41.591Z,5.43
2023-07-30T03:05:08.598Z,4.47
2023-07-30T03:07:35.580Z,5.47
2023-07-30T03:10:02.099Z,3.95
2023-07-30T03:12:30.080Z,5.85
2023-07-30T03:14:56.622Z,4.85
2023-07-30T03:17:23.657Z,4.35
2023-07-30T03:19:51.736Z,4.47
2023-07-30T03:22:18.362Z,6.20
2023-07-30T03:24:47.436Z,4.28
2023-07-30T03:27:14.294Z,6.75
2023-07-30T03:29:42.031Z,5.65
2023-07-30T03:32:08.984Z,4.85
2023-07-30T03:34:35.516Z,3.30
2023-07-30T03:37:02.055Z,4.22
2023-07-30T03:39:28.675Z,4.70
2023-07-30T03:41:55.358Z,4.82
2023-07-30T03:44:21.930Z,7.88
2023-07-30T03:46:49.780Z,5.18
2023-07-30T03:49:17.218Z,6.00
2023-07-30T03:51:43.883Z,6.35
2023-07-30T03:54:10.457Z,7.30
2023-07-30T03:56:37.033Z,7.57
2023-07-30T03:59:03.590Z,5.88
2023-07-30T04:01:31.506Z,5.78
2023-07-30T04:03:58.314Z,5.18
2023-07-30T04:06:24.951Z,3.95
2023-07-30T04:08:51.494Z,4.40
2023-07-30T04:11:18.129Z,7.65
2023-07-30T04:13:44.802Z,4.15
2023-07-30T04:16:11.689Z,4.50
2023-07-30T04:18:38.315Z,3.42
2023-07-30T04:21:04.910Z,3.90
2023-07-30T04:23:31.401Z,3.67
2023-07-30T04:25:57.953Z,3.20
2023-07-30T04:28:24.631Z,3.35
2023-07-30T04:30:51.231Z,3.55
2023-07-30T04:33:18.511Z,3.30
2023-07-30T04:35:45.089Z,3.45
2023-07-30T04:38:11.679Z,3.63
2023-07-30T04:40:38.293Z,3.55
2023-07-30T04:43:04.877Z,4.13
2023-07-30T04:45:31.976Z,4.35
2023-07-30T04:47:58.775Z,4.50
2023-07-30T04:50:25.413Z,4.10
2023-07-30T04:52:52.697Z,4.78
2023-07-30T04:55:19.316Z,4.47
2023-07-30T04:57:47.043Z,4.28
2023-07-30T05:00:13.863Z,4.00
2023-07-30T05:02:40.518Z,4.15
2023-07-30T05:05:07.434Z,4.10
2023-07-30T05:07:34.023Z,4.32
2023-07-30T05:10:00.622Z,3.72
2023-07-30T05:12:27.230Z,4.22
2023-07-30T05:14:53.783Z,4.28
2023-07-30T05:17:20.489Z,4.10
2023-07-30T05:19:47.820Z,4.10
2023-07-30T05:22:14.485Z,4.32
2023-07-30T05:24:41.254Z,4.20
2023-07-30T05:27:08.005Z,4.10
2023-07-30T05:29:34.917Z,4.10
2023-07-30T05:32:01.640Z,3.95
2023-07-30T05:34:28.592Z,6.90
2023-07-30T05:36:55.179Z,5.63
2023-07-30T05:39:21.697Z,3.97
2023-07-30T17:28:29.937Z,1.73
2023-07-30T17:31:05.731Z,1.80
2023-07-30T17:33:37.946Z,1.88
2023-07-30T17:39:46.639Z,2.92
2023-07-30T17:42:14.071Z,2.30
2023-07-30T17:44:42.158Z,2.10
2023-07-30T17:47:09.385Z,2.17
2023-07-30T17:49:36.104Z,2.05
2023-07-30T17:52:02.730Z,2.00
2023-07-30T17:54:30.402Z,2.20
2023-07-30T17:56:56.967Z,2.28
2023-07-30T17:59:25.495Z,2.20
2023-07-30T18:01:52.546Z,2.60
2023-07-30T18:04:19.259Z,2.10
2023-07-30T18:06:46.489Z,2.45
2023-07-30T18:09:13.647Z,2.28
2023-07-30T18:11:41.479Z,2.35
2023-07-30T18:14:22.645Z,2.45
2023-07-30T18:16:49.494Z,2.10
2023-07-30T18:19:16.163Z,2.17
2023-07-30T18:21:42.958Z,2.40
2023-07-30T18:24:09.542Z,2.20
2023-07-30T18:26:36.236Z,2.30
2023-07-30T18:29:26.700Z,2.40
2023-07-30T18:31:53.535Z,2.45
2023-07-30T18:35:16.635Z,2.22
2023-07-30T18:37:43.677Z,2.30
2023-07-30T18:40:10.904Z,2.55
2023-07-30T18:42:38.665Z,2.70
2023-07-30T18:45:10.298Z,2.38
2023-07-30T18:47:37.433Z,2.90
2023-07-30T18:50:04.987Z,2.30
2023-07-30T18:52:32.341Z,2.58
2023-07-30T18:54:59.283Z,2.42
2023-07-30T18:57:26.084Z,2.30
2023-07-30T18:59:52.625Z,2.50
2023-07-30T19:02:19.263Z,2.33
2023-07-30T19:04:46.091Z,2.50
2023-07-30T19:07:13.104Z,2.50
2023-07-30T19:09:39.984Z,2.30
2023-07-30T19:12:07.186Z,2.80
2023-07-30T19:14:33.757Z,2.67
2023-07-30T19:17:01.709Z,2.50
2023-07-30T19:19:29.248Z,2.40
2023-07-30T19:21:56.875Z,2.42
2023-07-30T19:24:24.359Z,2.35
2023-07-30T19:26:51.357Z,2.60
2023-07-30T19:29:17.947Z,2.92
2023-07-30T19:31:44.453Z,2.17
2023-07-30T19:34:12.606Z,3.00
2023-07-30T19:36:40.614Z,2.42
2023-07-30T19:39:07.987Z,2.10
2023-07-30T19:41:35.150Z,2.90
2023-07-30T19:44:01.814Z,2.67
2023-07-30T19:46:28.595Z,2.67
2023-07-30T19:48:55.813Z,2.33
2023-07-30T19:51:23.440Z,2.60
2023-07-30T19:53:50.385Z,2.60
2023-07-30T19:56:17.078Z,2.30
2023-07-30T19:58:43.715Z,2.45
2023-07-30T20:01:10.483Z,2.40
2023-07-30T20:03:37.228Z,2.30
2023-07-30T20:06:06.294Z,2.67
2023-07-30T20:08:33.559Z,2.30
2023-07-30T20:11:01.015Z,2.22
2023-07-30T20:13:27.823Z,2.47
2023-07-30T20:15:56.183Z,2.53
2023-07-30T20:18:23.442Z,2.28
2023-07-30T20:20:50.225Z,2.53
2023-07-30T20:23:16.989Z,2.70
2023-07-30T20:25:45.350Z,2.40
2023-07-30T20:28:11.958Z,2.47
2023-07-30T20:30:38.800Z,2.10
2023-07-30T20:33:05.561Z,2.25
2023-07-30T20:35:32.684Z,2.30
2023-07-30T20:38:00.319Z,2.50
2023-07-30T20:40:28.332Z,2.50
2023-07-30T20:42:55.492Z,2.22
2023-07-30T20:45:23.377Z,2.38
2023-07-30T20:47:51.252Z,2.10
2023-07-30T20:50:18.530Z,2.58
2023-07-30T20:52:46.289Z,2.90
2023-07-30T20:55:14.865Z,2.13
2023-07-30T20:57:42.242Z,2.05
2023-07-30T21:00:10.373Z,2.30
2023-07-30T21:02:37.981Z,2.10
2023-07-30T21:05:06.091Z,2.35
2023-07-30T21:07:32.709Z,2.17
2023-07-30T21:09:59.346Z,2.38
2023-07-30T21:12:26.044Z,2.10
2023-07-30T21:14:52.685Z,2.28
2023-07-30T21:17:20.483Z,2.65
2023-07-30T21:19:47.880Z,2.60
2023-07-30T21:22:14.496Z,2.67
2023-07-30T21:24:41.317Z,2.45
2023-07-30T21:27:08.619Z,2.30
2023-07-30T21:29:35.311Z,2.63
2023-07-30T21:32:02.459Z,2.75
2023-07-30T21:34:29.192Z,2.22
2023-07-30T21:36:55.712Z,2.63
2023-07-30T21:39:22.276Z,2.53
2023-07-30T21:41:48.847Z,2.35
2023-07-30T21:44:19.445Z,2.30
2023-07-30T21:46:46.100Z,2.58
2023-07-30T21:49:12.910Z,2.53
2023-07-30T21:51:39.639Z,2.10
2023-07-30T21:54:06.297Z,2.90
2023-07-30T21:56:32.852Z,2.42
2023-07-30T21:58:59.400Z,2.65
2023-07-30T22:01:26.028Z,2.88
2023-07-30T22:03:54.181Z,2.30
2023-07-30T22:06:20.752Z,2.80
2023-07-30T22:08:47.365Z,2.90
2023-07-30T22:11:17.660Z,2.47
2023-07-30T22:13:45.022Z,2.60
2023-07-30T22:16:11.741Z,2.50
2023-07-30T22:18:41.401Z,2.25
2023-07-30T22:21:09.241Z,3.08
2023-07-30T22:23:36.205Z,2.72
2023-07-30T22:26:02.921Z,2.70
2023-07-30T22:28:29.590Z,2.67
2023-07-30T22:30:56.168Z,3.10
2023-07-30T22:33:23.609Z,2.70
2023-07-30T22:35:56.578Z,2.58
2023-07-30T22:38:23.775Z,2.50
2023-07-30T22:40:50.509Z,2.47
2023-07-30T22:43:17.415Z,2.63
2023-07-30T22:45:44.026Z,2.60
2023-07-30T22:48:12.075Z,2.92
2023-07-30T22:50:39.263Z,2.75
2023-07-30T22:53:06.811Z,2.65
2023-07-30T22:55:33.533Z,2.92
2023-07-30T22:58:00.336Z,2.65
2023-07-30T23:00:26.876Z,3.00
2023-07-30T23:02:53.479Z,2.95
2023-07-30T23:05:20.360Z,2.63
2023-07-30T23:07:46.859Z,3.25
2023-07-30T23:10:13.442Z,2.92
2023-07-30T23:12:40.028Z,3.42
2023-07-30T23:15:07.028Z,2.85
2023-07-30T23:17:33.900Z,3.03
2023-07-30T23:20:00.546Z,3.25
2023-07-30T23:22:27.147Z,3.15
2023-07-30T23:24:53.705Z,2.80
2023-07-30T23:27:20.212Z,2.70
2023-07-30T23:29:47.183Z,2.88
2023-07-30T23:32:13.896Z,3.05
2023-07-30T23:34:40.508Z,3.28
2023-07-30T23:37:07.344Z,3.15
2023-07-30T23:39:33.995Z,3.10
2023-07-30T23:42:00.605Z,3.40
2023-07-30T23:44:27.145Z,2.72
2023-07-30T23:46:53.763Z,2.83
2023-07-30T23:49:20.270Z,2.95
2023-07-30T23:51:46.821Z,3.03
2023-07-30T23:54:13.398Z,3.25
2023-07-30T23:56:40.212Z,3.10
2023-07-30T23:59:06.976Z,3.50
